createdAt,value
2023-03-26T00:00:54.355Z,5.95
2023-03-26T00:03:21.046Z,4.28
2023-03-26T00:05:50.680Z,7.43
2023-03-26T00:08:17.714Z,5.88
2023-03-26T00:10:45.021Z,8.48
2023-03-26T00:13:11.486Z,6.05
2023-03-26T00:15:38.064Z,4.35
2023-03-26T00:18:04.583Z,5.05
2023-03-26T00:20:32.854Z,7.40
2023-03-26T00:23:02.528Z,3.72
2023-03-26T00:25:30.304Z,5.38
2023-03-26T00:27:57.311Z,8.82
2023-03-26T00:30:23.967Z,8.77
2023-03-26T00:32:53.670Z,4.32
2023-03-26T00:35:20.922Z,3.78
2023-03-26T00:37:47.965Z,5.00
2023-03-26T00:40:14.629Z,3.22
2023-03-26T00:42:42.534Z,5.35
2023-03-26T00:45:09.744Z,3.70
2023-03-26T00:47:36.484Z,4.60
2023-03-26T00:50:04.355Z,7.78
2023-03-26T00:52:31.756Z,2.30
2023-03-26T00:54:58.315Z,7.93
2023-03-26T00:57:35.511Z,7.60
2023-03-26T01:00:08.871Z,6.13
2023-03-26T01:02:35.509Z,4.57
2023-03-26T01:05:34.324Z,5.43
2023-03-26T01:08:25.647Z,15.27
2023-03-26T01:11:02.992Z,8.35
2023-03-26T01:13:38.959Z,5.15
2023-03-26T01:16:20.713Z,6.72
2023-03-26T01:18:48.658Z,5.03
2023-03-26T01:21:22.879Z,3.70
2023-03-26T01:24:06.780Z,7.10
2023-03-26T01:26:48.284Z,7.97
2023-03-26T01:29:39.570Z,6.88
2023-03-26T01:32:44.187Z,5.30
2023-03-26T01:35:17.555Z,6.97
2023-03-26T01:37:47.001Z,4.47
2023-03-26T01:40:43.281Z,4.85
2023-03-26T01:43:46.456Z,6.60
2023-03-26T01:46:15.898Z,2.95
2023-03-26T01:48:45.369Z,4.55
2023-03-26T01:51:14.048Z,2.03
2023-03-26T01:53:45.406Z,4.68
2023-03-26T01:56:17.825Z,3.58
2023-03-26T01:59:04.738Z,1.63
2023-03-26T02:02:01.242Z,2.53
2023-03-26T02:04:43.306Z,1.48
2023-03-26T02:07:28.868Z,1.65
2023-03-26T02:10:02.221Z,1.92
2023-03-26T02:12:30.009Z,1.10
2023-03-26T02:15:00.179Z,2.25
2023-03-26T02:17:30.142Z,0.45
2023-03-26T02:19:57.050Z,0.65
2023-03-26T02:22:29.734Z,2.28
2023-03-26T02:24:56.156Z,2.97
2023-03-26T02:27:22.812Z,1.63
2023-03-26T02:29:50.478Z,1.00
2023-03-26T02:32:19.450Z,0.30
2023-03-26T02:34:47.484Z,0.55
2023-03-26T02:37:14.040Z,1.67
2023-03-26T02:39:40.748Z,0.63
2023-03-26T02:42:07.196Z,0.60
2023-03-26T02:44:33.621Z,0.70
2023-03-26T02:47:00.279Z,0.68
2023-03-26T02:49:27.275Z,1.05
2023-03-26T02:51:56.267Z,0.43
2023-03-26T02:54:23.249Z,0.40
2023-03-26T02:56:49.859Z,1.23
2023-03-26T02:59:16.344Z,1.45
2023-03-26T03:01:43.402Z,1.92
2023-03-26T03:04:10.992Z,1.63
2023-03-26T03:06:38.450Z,1.70
2023-03-26T03:09:08.603Z,2.60
2023-03-26T03:11:35.969Z,3.78
2023-03-26T03:14:02.562Z,2.63
2023-03-26T03:16:29.184Z,2.78
2023-03-26T03:18:58.124Z,1.65
2023-03-26T03:21:27.202Z,3.88
2023-03-26T03:23:55.014Z,9.73
2023-03-26T03:26:28.142Z,4.32
2023-03-26T03:28:58.586Z,3.88
2023-03-26T03:31:26.560Z,2.42
2023-03-26T03:33:53.200Z,4.78
2023-03-26T03:36:22.667Z,8.48
2023-03-26T03:38:50.012Z,8.00
2023-03-26T03:41:21.696Z,6.35
2023-03-26T03:43:48.185Z,4.72
2023-03-26T03:46:14.746Z,8.63
2023-03-26T03:48:41.177Z,9.57
2023-03-26T03:51:07.940Z,9.43
2023-03-26T03:53:37.247Z,8.95
2023-03-26T03:56:10.502Z,7.18
2023-03-26T03:58:37.475Z,6.63
2023-03-26T04:01:04.703Z,9.93
2023-03-26T04:03:33.851Z,9.52
2023-03-26T04:06:01.354Z,9.23
2023-03-26T04:08:28.221Z,10.88
2023-03-26T04:10:54.856Z,10.30
2023-03-26T04:13:21.564Z,18.25
2023-03-26T04:15:48.161Z,10.02
2023-03-26T04:18:14.658Z,10.02
2023-03-26T04:20:46.483Z,12.65
2023-03-26T04:23:14.331Z,8.80
2023-03-26T04:25:44.625Z,10.20
2023-03-26T04:28:26.458Z,10.98
2023-03-26T04:30:55.412Z,12.57
2023-03-26T04:33:25.068Z,9.10
2023-03-26T04:35:51.862Z,13.48
2023-03-26T04:38:18.601Z,12.77
2023-03-26T04:40:47.476Z,16.60
2023-03-26T04:43:18.443Z,9.15
2023-03-26T04:45:48.242Z,23.17
2023-03-26T04:48:14.780Z,16.13
2023-03-26T04:50:46.571Z,16.13
2023-03-26T04:53:19.271Z,12.38
2023-03-26T04:56:06.434Z,10.05
2023-03-26T04:58:34.170Z,12.10
2023-03-26T05:01:10.123Z,11.40
2023-03-26T05:03:41.284Z,15.93
2023-03-26T05:06:10.960Z,12.18
2023-03-26T05:08:39.129Z,9.43
2023-03-26T05:11:14.572Z,13.73
2023-03-26T05:13:42.869Z,13.77
2023-03-26T05:16:11.036Z,14.00
2023-03-26T05:18:37.658Z,14.23
2023-03-26T05:21:04.437Z,9.80
2023-03-26T05:23:31.124Z,10.38
2023-03-26T05:25:57.593Z,11.68
2023-03-26T05:28:25.482Z,15.65
2023-03-26T05:30:53.288Z,13.50
2023-03-26T05:33:21.088Z,16.23
2023-03-26T05:35:49.491Z,22.00
2023-03-26T05:38:20.841Z,14.77
2023-03-26T05:40:47.981Z,14.80
2023-03-26T05:43:14.993Z,16.17
2023-03-26T05:45:41.497Z,15.77
2023-03-26T05:48:08.034Z,18.25
2023-03-26T05:50:34.663Z,11.82
2023-03-26T05:53:01.099Z,13.15
2023-03-26T05:55:27.789Z,11.95
2023-03-26T05:57:54.218Z,12.30
2023-03-26T06:00:20.756Z,14.48
2023-03-26T06:02:51.311Z,17.52
2023-03-26T06:05:37.417Z,12.50
2023-03-26T06:08:04.241Z,16.42
2023-03-26T06:10:30.960Z,16.00
2023-03-26T06:12:57.478Z,16.10
2023-03-26T06:15:24.135Z,17.15
2023-03-26T06:17:52.997Z,13.80
2023-03-26T06:20:19.500Z,19.00
2023-03-26T06:22:46.009Z,11.07
2023-03-26T06:25:12.566Z,17.13
2023-03-26T06:27:39.057Z,22.50
2023-03-26T06:30:06.895Z,9.93
2023-03-26T06:32:38.498Z,13.27
2023-03-26T06:35:09.081Z,12.45
2023-03-26T06:37:36.035Z,13.93
2023-03-26T06:40:02.752Z,17.27
2023-03-26T06:43:06.342Z,19.92
2023-03-26T06:45:15.995Z,8.95
2023-03-26T06:47:42.537Z,18.30
2023-03-26T06:50:11.527Z,13.27
2023-03-26T06:52:38.168Z,11.07
2023-03-26T06:55:08.631Z,17.15
2023-03-26T06:57:35.340Z,11.07
2023-03-26T07:00:02.385Z,15.60
2023-03-26T07:02:28.925Z,20.15
2023-03-26T07:04:55.740Z,7.25
2023-03-26T07:07:24.070Z,22.65
2023-03-26T07:09:51.706Z,13.32
2023-03-26T07:12:18.222Z,13.80
2023-03-26T07:14:47.676Z,16.20
2023-03-26T07:17:14.222Z,11.80
2023-03-26T07:19:40.739Z,14.50
2023-03-26T07:22:07.548Z,12.93
2023-03-26T07:24:34.306Z,14.38
2023-03-26T07:27:15.131Z,25.17
2023-03-26T07:30:07.224Z,12.80
2023-03-26T07:32:55.950Z,12.38
2023-03-26T07:35:51.660Z,16.77
2023-03-26T07:38:28.138Z,12.30
2023-03-26T07:41:10.865Z,13.65
2023-03-26T07:43:52.748Z,12.18
2023-03-26T07:46:25.960Z,12.90
2023-03-26T07:48:55.030Z,13.35
2023-03-26T07:51:21.986Z,17.52
2023-03-26T07:53:49.639Z,12.48
2023-03-26T07:56:34.036Z,17.88
2023-03-26T07:59:23.453Z,15.73
2023-03-26T08:02:21.515Z,11.57
2023-03-26T08:05:20.263Z,13.93
2023-03-26T08:08:10.065Z,19.25
2023-03-26T08:11:22.447Z,13.73
2023-03-26T08:14:25.152Z,15.63
2023-03-26T08:16:57.012Z,15.23
2023-03-26T08:19:40.785Z,20.95
2023-03-26T08:22:29.271Z,16.13
2023-03-26T08:25:17.777Z,16.23
2023-03-26T08:28:11.212Z,14.90
2023-03-26T08:30:37.806Z,12.10
2023-03-26T08:33:12.689Z,12.93
2023-03-26T08:35:42.799Z,15.93
2023-03-26T08:38:14.815Z,12.30
2023-03-26T08:41:03.549Z,16.02
2023-03-26T08:43:53.333Z,15.52
2023-03-26T08:46:43.318Z,15.23
2023-03-26T08:49:26.688Z,12.32
2023-03-26T08:52:12.449Z,12.82
2023-03-26T08:54:47.622Z,12.32
2023-03-26T08:57:33.220Z,16.45
2023-03-26T09:00:22.103Z,10.18
2023-03-26T09:03:07.735Z,13.45
2023-03-26T09:05:48.009Z,14.25
2023-03-26T09:08:54.427Z,13.40
2023-03-26T09:11:32.531Z,17.80
2023-03-26T09:14:05.203Z,12.07
2023-03-26T09:16:47.066Z,16.42
2023-03-26T09:19:57.490Z,14.98
2023-03-26T09:23:12.639Z,17.92
2023-03-26T09:25:58.817Z,14.38
2023-03-26T09:28:46.001Z,18.02
2023-03-26T09:32:11.860Z,13.40
2023-03-26T09:35:00.554Z,20.58
2023-03-26T09:37:56.079Z,15.63
2023-03-26T09:40:29.791Z,11.68
2023-03-26T09:43:14.478Z,13.43
2023-03-26T09:45:53.160Z,14.05
2023-03-26T09:48:26.102Z,16.50
2023-03-26T09:51:36.109Z,17.38
2023-03-26T09:54:26.012Z,14.00
2023-03-26T09:57:07.475Z,25.67
2023-03-26T09:59:47.443Z,9.02
2023-03-26T10:02:45.877Z,20.20
2023-03-26T10:05:44.623Z,19.17
2023-03-26T10:08:22.551Z,13.32
2023-03-26T10:11:08.114Z,18.23
2023-03-26T10:13:50.020Z,13.75
2023-03-26T10:16:38.774Z,15.65
2023-03-26T10:19:17.988Z,13.45
2023-03-26T10:21:57.432Z,9.57
2023-03-26T10:24:39.495Z,9.45
2023-03-26T10:27:20.267Z,16.05
2023-03-26T10:30:14.675Z,11.93
2023-03-26T10:32:59.696Z,16.10
2023-03-26T10:35:35.264Z,9.35
2023-03-26T10:38:18.995Z,9.88
2023-03-26T10:41:05.066Z,11.98
2023-03-26T10:44:08.358Z,14.70
2023-03-26T10:46:58.937Z,15.02
2023-03-26T10:49:52.225Z,12.80
2023-03-26T10:52:23.743Z,13.98
2023-03-26T10:55:12.062Z,15.48
2023-03-26T10:57:53.008Z,12.55
2023-03-26T11:00:26.440Z,9.00
2023-03-26T11:03:02.026Z,12.82
2023-03-26T11:05:43.634Z,16.88
2023-03-26T11:08:35.484Z,13.10
2023-03-26T11:11:25.017Z,12.07
2023-03-26T11:14:04.624Z,8.43
2023-03-26T11:16:57.133Z,13.18
2023-03-26T11:19:32.180Z,7.15
2023-03-26T11:22:23.766Z,12.10
2023-03-26T11:25:12.112Z,9.23
2023-03-26T11:27:45.346Z,8.52
2023-03-26T11:30:45.455Z,8.65
2023-03-26T11:33:26.756Z,8.88
2023-03-26T11:36:08.709Z,10.00
2023-03-26T11:38:43.634Z,11.02
2023-03-26T11:41:23.066Z,7.85
2023-03-26T11:43:55.418Z,6.88
2023-03-26T11:46:25.223Z,10.73
2023-03-26T11:49:00.305Z,11.68
2023-03-26T11:51:33.697Z,10.23
2023-03-26T11:54:01.277Z,10.13
2023-03-26T11:56:33.917Z,10.07
2023-03-26T11:59:27.338Z,11.80
2023-03-26T12:02:17.890Z,5.63
2023-03-26T12:04:51.779Z,8.63
2023-03-26T12:07:18.269Z,4.72
2023-03-26T12:09:56.371Z,7.97
2023-03-26T12:12:34.446Z,7.57
2023-03-26T12:15:01.183Z,5.85
2023-03-26T12:17:32.783Z,5.25
2023-03-26T12:20:00.899Z,10.10
2023-03-26T12:22:37.886Z,6.25
2023-03-26T12:25:20.465Z,4.53
2023-03-26T12:28:06.757Z,3.13
2023-03-26T12:30:39.547Z,3.63
2023-03-26T12:33:15.180Z,4.30
2023-03-26T12:35:42.808Z,5.55
2023-03-26T12:38:35.815Z,4.63
2023-03-26T12:42:08.856Z,3.30
2023-03-26T12:44:55.849Z,3.35
2023-03-26T12:47:57.319Z,2.85
2023-03-26T12:49:26.703Z,3.40
2023-03-26T12:51:58.695Z,2.50
2023-03-26T12:54:36.229Z,5.50
2023-03-26T12:57:23.929Z,3.60
2023-03-26T13:00:20.231Z,4.60
2023-03-26T13:02:59.138Z,1.77
2023-03-26T13:05:58.277Z,3.45
2023-03-26T13:08:43.408Z,3.28
2023-03-26T13:11:30.755Z,2.13
2023-03-26T13:14:16.163Z,1.27
2023-03-26T13:16:57.064Z,2.80
2023-03-26T13:19:28.923Z,1.60
2023-03-26T13:22:14.045Z,1.92
2023-03-26T13:24:55.082Z,0.70
2023-03-26T13:27:42.262Z,10.10
2023-03-26T13:30:12.074Z,4.25
2023-03-26T13:33:11.995Z,5.38
2023-03-26T13:36:06.567Z,1.83
2023-03-26T13:39:03.574Z,10.55
2023-03-26T13:41:57.235Z,1.02
2023-03-26T13:44:29.544Z,2.08
2023-03-26T13:47:04.357Z,2.22
2023-03-26T13:49:40.737Z,1.10
2023-03-26T13:52:09.956Z,1.40
2023-03-26T13:54:50.145Z,1.50
2023-03-26T13:57:49.471Z,2.10
2023-03-26T14:00:22.730Z,1.88
2023-03-26T14:03:03.536Z,1.42
2023-03-26T14:06:00.900Z,3.78
2023-03-26T14:08:39.486Z,1.70
2023-03-26T14:11:16.522Z,2.72
2023-03-26T14:14:00.612Z,6.75
2023-03-26T14:16:38.315Z,6.20
2023-03-26T14:19:41.238Z,2.47
2023-03-26T14:22:27.997Z,3.00
2023-03-26T14:25:14.186Z,2.63
2023-03-26T14:28:06.093Z,2.20
2023-03-26T14:30:40.463Z,3.70
2023-03-26T14:33:28.017Z,3.10
2023-03-26T14:36:42.448Z,2.67
2023-03-26T14:39:26.446Z,1.88
2023-03-26T14:44:48.645Z,2.55
2023-03-26T14:47:19.507Z,2.88
2023-03-26T14:50:09.028Z,4.82
2023-03-26T14:52:49.105Z,3.65
2023-03-26T14:55:24.228Z,3.53
2023-03-26T14:58:23.580Z,3.72
2023-03-26T15:01:09.070Z,7.90
2023-03-26T15:04:12.547Z,4.43
2023-03-26T15:07:08.973Z,3.20
2023-03-26T15:09:54.755Z,2.78
2023-03-26T15:12:33.546Z,3.13
2023-03-26T15:15:12.391Z,3.30
2023-03-26T15:18:18.475Z,5.53
2023-03-26T15:21:06.945Z,2.33
2023-03-26T15:23:58.680Z,4.05
2023-03-26T15:26:53.491Z,2.60
2023-03-26T15:29:32.118Z,3.60
2023-03-26T15:32:41.488Z,6.30
2023-03-26T15:35:11.340Z,3.45
2023-03-26T15:37:41.467Z,2.58
2023-03-26T15:40:43.115Z,3.45
2023-03-26T15:43:13.089Z,4.45
2023-03-26T15:45:53.901Z,4.60
2023-03-26T15:49:09.620Z,2.65
2023-03-26T15:51:47.020Z,3.88
2023-03-26T15:54:39.534Z,1.95
2023-03-26T15:57:42.876Z,2.70
2023-03-26T16:00:34.645Z,4.78
2023-03-26T16:03:10.193Z,4.68
2023-03-26T16:06:11.623Z,3.72
2023-03-26T16:09:04.957Z,4.18
2023-03-26T16:11:53.749Z,2.53
2023-03-26T16:14:36.208Z,3.72
2023-03-26T16:17:06.661Z,2.22
2023-03-26T16:19:49.687Z,2.80
2023-03-26T16:22:43.323Z,3.80
2023-03-26T16:25:34.769Z,4.28
2023-03-26T16:28:12.208Z,2.22
2023-03-26T16:30:43.587Z,3.45
2023-03-26T16:33:21.387Z,2.47
2023-03-26T16:36:21.315Z,5.22
2023-03-26T16:38:54.797Z,2.30
2023-03-26T16:41:27.481Z,3.60
2023-03-26T16:44:13.792Z,2.27
2023-03-26T16:47:06.832Z,4.95
2023-03-26T16:50:08.395Z,2.40
2023-03-26T16:52:45.435Z,2.88
2023-03-26T16:55:35.111Z,5.05
2023-03-26T16:58:03.216Z,4.93
2023-03-26T17:00:40.629Z,5.55
2023-03-26T17:03:28.129Z,4.78
2023-03-26T17:05:56.484Z,6.03
2023-03-26T17:08:42.624Z,3.90
2023-03-26T17:11:15.463Z,15.88
2023-03-26T17:14:03.632Z,6.23
2023-03-26T17:16:38.038Z,6.20
2023-03-26T17:19:19.154Z,7.03
2023-03-26T17:22:05.944Z,4.28
2023-03-26T17:24:42.826Z,4.45
2023-03-26T17:27:34.179Z,6.25
2023-03-26T17:30:32.790Z,3.90
2023-03-26T17:33:02.392Z,4.57
2023-03-26T17:35:46.932Z,6.78
2023-03-26T17:38:25.351Z,4.90
2023-03-26T17:40:59.754Z,3.40
2023-03-26T17:43:52.430Z,4.10
2023-03-26T17:46:35.051Z,4.10
2023-03-26T17:49:11.938Z,5.75
2023-03-26T17:52:02.330Z,4.20
2023-03-26T17:54:41.255Z,3.85
2023-03-26T17:57:17.742Z,3.47
2023-03-26T17:59:45.688Z,6.82
2023-03-26T18:02:16.737Z,5.45
2023-03-26T18:04:48.599Z,3.50
2023-03-26T18:08:11.317Z,4.00
2023-03-26T18:11:15.317Z,3.67
2023-03-26T18:13:56.918Z,3.88
2023-03-26T18:16:51.518Z,2.70
2023-03-26T18:19:27.070Z,3.72
2023-03-26T18:21:56.937Z,2.75
2023-03-26T18:24:26.700Z,2.80
2023-03-26T18:27:15.695Z,1.85
2023-03-26T18:29:46.709Z,6.05
2023-03-26T18:32:13.362Z,3.90
2023-03-26T18:34:50.088Z,3.03
2023-03-26T18:37:40.155Z,3.15
2023-03-26T18:40:12.576Z,2.67
2023-03-26T18:42:41.440Z,3.40
2023-03-26T18:45:20.819Z,2.55
2023-03-26T18:47:52.202Z,2.35
2023-03-26T18:50:26.099Z,2.15
2023-03-26T18:52:53.295Z,3.60
2023-03-26T18:55:20.056Z,3.88
2023-03-26T18:57:51.613Z,1.60
2023-03-26T19:00:23.611Z,2.35
2023-03-26T19:02:58.853Z,2.80
2023-03-26T19:05:28.459Z,4.97
2023-03-26T19:07:56.296Z,4.03
2023-03-26T19:10:25.138Z,1.95
2023-03-26T19:13:00.186Z,3.03
2023-03-26T19:15:30.456Z,3.65
2023-03-26T19:18:06.999Z,3.88
2023-03-26T19:20:42.350Z,3.03
2023-03-26T19:23:35.029Z,5.03
2023-03-26T19:26:06.502Z,3.40
2023-03-26T19:28:42.452Z,4.32
2023-03-26T19:31:15.901Z,3.15
2023-03-26T19:33:43.978Z,2.70
2023-03-26T19:36:13.788Z,2.72
2023-03-26T19:39:04.868Z,2.17
2023-03-26T19:41:36.587Z,1.95
2023-03-26T19:44:18.637Z,1.42
2023-03-26T19:46:52.981Z,1.70
2023-03-26T19:49:32.121Z,2.13
2023-03-26T19:52:25.561Z,2.65
2023-03-26T19:55:00.439Z,1.67
2023-03-26T19:57:29.191Z,3.42
2023-03-26T19:59:56.553Z,1.10
2023-03-26T20:02:23.166Z,3.38
2023-03-26T20:04:50.532Z,2.30
2023-03-26T20:07:35.825Z,4.28
2023-03-26T20:10:05.564Z,9.50
2023-03-26T20:12:32.791Z,2.60
2023-03-26T20:15:00.191Z,2.33
2023-03-26T20:17:27.182Z,2.58
2023-03-26T20:19:54.692Z,1.55
2023-03-26T20:22:21.346Z,1.73
2023-03-26T20:24:48.128Z,4.30
2023-03-26T20:27:14.964Z,2.90
2023-03-26T20:29:42.292Z,2.92
2023-03-26T20:32:27.733Z,2.95
2023-03-26T20:34:55.249Z,2.85
2023-03-26T20:37:21.718Z,1.42
2023-03-26T20:39:48.577Z,2.88
2023-03-26T20:42:16.175Z,2.85
2023-03-26T20:44:42.997Z,1.55
2023-03-26T20:47:12.823Z,1.98
2023-03-26T20:49:40.309Z,1.65
2023-03-26T20:52:06.996Z,0.60
2023-03-26T20:54:33.593Z,1.10
2023-03-26T20:57:00.213Z,1.05
2023-03-26T20:59:28.140Z,1.65
2023-03-26T21:02:01.419Z,3.60
2023-03-26T21:04:27.991Z,0.80
2023-03-26T21:07:07.261Z,2.33
2023-03-26T21:09:44.430Z,3.13
2023-03-26T21:12:34.129Z,0.80
2023-03-26T21:17:28.452Z,3.70
2023-03-26T21:19:58.104Z,1.40
2023-03-26T21:22:54.359Z,0.65
2023-03-26T21:25:39.320Z,1.90
2023-03-26T21:28:12.624Z,0.68
2023-03-26T21:30:40.018Z,0.98
2023-03-26T21:33:06.715Z,1.48
2023-03-26T21:35:34.821Z,2.20
2023-03-26T21:38:06.764Z,1.50
2023-03-26T21:40:34.279Z,2.50
2023-03-26T21:43:03.965Z,1.40
2023-03-26T21:45:30.922Z,1.40
2023-03-26T21:47:57.717Z,1.10
2023-03-26T21:50:24.592Z,4.82
2023-03-26T21:52:51.714Z,3.10
2023-03-26T21:55:21.835Z,4.82
2023-03-26T21:58:12.650Z,6.28
2023-03-26T22:01:16.846Z,5.38
2023-03-26T22:04:02.287Z,6.22
2023-03-26T22:06:37.268Z,6.45
2023-03-26T22:09:04.734Z,8.50
2023-03-26T22:11:31.171Z,7.93
2023-03-26T22:13:57.621Z,7.18
2023-03-26T22:16:26.758Z,9.20
2023-03-26T22:18:53.883Z,8.32
2023-03-26T22:21:20.523Z,12.27
2023-03-26T22:23:52.719Z,9.65
2023-03-26T22:26:23.202Z,9.57
2023-03-26T22:28:50.578Z,12.32
2023-03-26T22:31:17.621Z,15.50
2023-03-26T22:33:44.661Z,15.23
2023-03-26T22:36:22.722Z,16.35
2023-03-26T22:38:53.590Z,13.60
2023-03-26T22:41:21.609Z,14.40
2023-03-26T22:43:48.644Z,18.20
2023-03-26T22:46:15.367Z,18.98
2023-03-26T22:48:41.908Z,13.73
2023-03-26T22:51:10.305Z,14.07
2023-03-26T22:53:37.156Z,15.90
2023-03-26T22:56:04.220Z,12.45
2023-03-26T22:58:30.941Z,16.33
2023-03-26T23:01:09.300Z,13.40
2023-03-26T23:03:37.161Z,13.05
2023-03-26T23:06:07.977Z,26.75
2023-03-26T23:08:37.379Z,16.88
2023-03-26T23:11:13.637Z,14.15
2023-03-26T23:13:41.640Z,17.63
2023-03-26T23:16:10.161Z,23.67
2023-03-26T23:18:37.888Z,19.30
2023-03-26T23:21:12.032Z,13.95
2023-03-26T23:23:39.782Z,22.73
2023-03-26T23:26:07.033Z,16.60
2023-03-26T23:28:34.677Z,17.85
2023-03-26T23:31:04.346Z,12.65
2023-03-26T23:33:35.210Z,16.98
2023-03-26T23:36:08.684Z,23.35
2023-03-26T23:38:43.857Z,18.88
2023-03-26T23:41:15.272Z,21.88
2023-03-26T23:43:54.192Z,18.67
2023-03-26T23:46:30.378Z,16.02
2023-03-26T23:48:59.838Z,12.90
2023-03-26T23:51:26.866Z,22.73
2023-03-26T23:53:54.031Z,17.80
2023-03-26T23:56:21.219Z,14.75
2023-03-26T23:58:48.939Z,14.73
